createdAt,value
2022-07-29T00:01:58.841Z,100287.50
2022-07-29T00:07:01.867Z,100302.34
2022-07-29T00:12:04.967Z,100306.75
2022-07-29T00:17:07.368Z,100272.75
2022-07-29T00:22:10.137Z,100308.66
2022-07-29T00:27:12.616Z,100328.25
2022-07-29T00:32:15.189Z,100316.25
2022-07-29T00:37:17.656Z,100331.97
2022-07-29T00:42:20.085Z,100286.34
2022-07-29T00:47:22.518Z,100273.38
2022-07-29T00:52:24.933Z,100287.69
2022-07-29T00:57:27.370Z,100278.25
2022-07-29T01:02:29.815Z,100316.53
2022-07-29T01:07:33.788Z,100326.59
2022-07-29T01:12:38.838Z,100321.16
2022-07-29T01:18:05.541Z,100345.38
2022-07-29T01:23:08.516Z,100331.91
2022-07-29T01:28:35.645Z,100344.91
2022-07-29T01:33:53.094Z,100312.88
2022-07-29T01:39:10.250Z,100309.81
2022-07-29T01:44:19.315Z,100329.28
2022-07-29T01:49:28.866Z,100333.66
2022-07-29T01:54:40.365Z,100319.34
2022-07-29T01:59:45.114Z,100329.75
2022-07-29T02:04:50.321Z,100322.75
2022-07-29T02:09:54.494Z,100315.81
2022-07-29T02:15:01.171Z,100303.00
2022-07-29T02:20:05.824Z,100308.94
2022-07-29T02:25:13.941Z,100284.00
2022-07-29T02:30:16.555Z,100325.88
2022-07-29T02:35:20.137Z,100314.97
2022-07-29T02:40:22.945Z,100303.56
2022-07-29T02:45:29.965Z,100290.44
2022-07-29T02:50:39.040Z,100322.09
2022-07-29T02:56:04.665Z,100317.59
2022-07-29T03:01:21.324Z,100308.41
2022-07-29T03:06:38.345Z,100335.88
2022-07-29T03:11:50.230Z,100328.00
2022-07-29T03:16:54.233Z,100334.31
2022-07-29T03:22:00.252Z,100308.66
2022-07-29T03:27:04.557Z,100321.63
2022-07-29T03:32:08.691Z,100313.47
2022-07-29T03:37:11.573Z,100297.22
2022-07-29T03:42:16.972Z,100337.94
2022-07-29T03:47:43.693Z,100324.78
2022-07-29T03:52:46.953Z,100343.06
2022-07-29T03:57:51.077Z,100347.09
2022-07-29T04:02:53.490Z,100330.34
2022-07-29T04:07:56.020Z,100355.97
2022-07-29T04:13:01.233Z,100349.13
2022-07-29T04:18:03.810Z,100326.00
2022-07-29T04:23:06.233Z,100349.38
2022-07-29T04:28:09.979Z,100386.25
2022-07-29T04:33:12.385Z,100380.53
2022-07-29T04:38:15.891Z,100378.25
2022-07-29T04:43:22.694Z,100383.84
2022-07-29T04:48:28.676Z,100381.41
2022-07-29T04:53:31.521Z,100363.16
2022-07-29T04:58:36.716Z,100382.78
2022-07-29T05:03:39.112Z,100381.34
2022-07-29T05:08:41.951Z,100380.75
2022-07-29T05:13:45.860Z,100398.81
2022-07-29T05:18:49.489Z,100379.34
2022-07-29T05:23:51.862Z,100351.53
2022-07-29T05:28:55.375Z,100413.59
2022-07-29T05:33:57.748Z,100378.28
2022-07-29T05:39:00.131Z,100410.94
2022-07-29T05:44:02.557Z,100442.94
2022-07-29T05:49:05.163Z,100417.16
2022-07-29T05:54:07.658Z,100428.06
2022-07-29T05:59:18.199Z,100449.72
2022-07-29T06:04:21.149Z,100431.25
2022-07-29T06:09:24.295Z,100432.38
2022-07-29T06:14:28.145Z,100440.34
2022-07-29T06:19:30.628Z,100431.88
2022-07-29T06:24:33.203Z,100433.56
2022-07-29T06:29:35.704Z,100437.13
2022-07-29T06:34:38.112Z,100404.84
2022-07-29T06:39:40.530Z,100442.66
2022-07-29T06:44:43.346Z,100422.25
2022-07-29T06:49:46.747Z,100447.47
2022-07-29T06:54:49.795Z,100441.69
2022-07-29T06:59:52.106Z,100436.25
2022-07-29T07:04:54.554Z,100452.78
2022-07-29T07:09:56.928Z,100438.09
2022-07-29T07:14:59.425Z,100430.72
2022-07-29T07:20:01.800Z,100431.19
2022-07-29T07:25:04.409Z,100452.66
2022-07-29T07:30:08.208Z,100459.28
2022-07-29T07:35:11.590Z,100454.88
2022-07-29T07:40:18.479Z,100429.09
2022-07-29T07:45:21.360Z,100430.38
2022-07-29T07:50:23.752Z,100408.28
2022-07-29T07:55:27.329Z,100449.97
2022-07-29T08:00:29.792Z,100430.44
2022-07-29T08:05:32.360Z,100457.72
2022-07-29T08:10:54.427Z,100446.53
2022-07-29T08:16:12.420Z,100438.78
2022-07-29T08:21:17.491Z,100454.16
2022-07-29T08:26:21.681Z,100451.94
2022-07-29T08:31:24.094Z,100418.81
2022-07-29T08:36:26.638Z,100402.63
2022-07-29T08:41:29.108Z,100435.22
2022-07-29T08:46:31.623Z,100443.94
2022-07-29T08:51:49.383Z,100445.59
2022-07-29T08:56:52.269Z,100442.31
2022-07-29T09:02:01.288Z,100443.63
2022-07-29T09:07:07.176Z,100421.66
2022-07-29T09:12:12.893Z,100429.16
2022-07-29T09:17:43.217Z,100435.97
2022-07-29T09:22:48.697Z,100402.41
2022-07-29T09:27:52.525Z,100431.25
2022-07-29T09:33:04.393Z,100401.94
2022-07-29T09:38:15.832Z,100381.25
2022-07-29T09:43:18.219Z,100379.63
2022-07-29T09:48:27.919Z,100390.22
2022-07-29T09:53:38.072Z,100400.88
2022-07-29T09:58:40.751Z,100391.91
2022-07-29T10:03:53.595Z,100391.22
2022-07-29T10:08:56.497Z,100394.72
2022-07-29T10:13:59.648Z,100328.50
2022-07-29T10:19:02.902Z,100342.03
2022-07-29T10:24:06.591Z,100359.47
2022-07-29T10:29:09.252Z,100375.69
2022-07-29T10:34:31.351Z,100368.63
2022-07-29T10:40:26.486Z,100333.59
2022-07-29T10:45:31.570Z,100338.47
2022-07-29T10:51:03.958Z,100337.22
2022-07-29T10:56:25.293Z,100329.34
2022-07-29T11:01:37.169Z,100350.28
2022-07-29T11:07:06.139Z,100336.84
2022-07-29T11:12:32.152Z,100327.50
2022-07-29T11:17:59.475Z,100326.16
2022-07-29T11:23:04.144Z,100327.09
2022-07-29T11:28:18.475Z,100315.41
2022-07-29T11:33:54.562Z,100319.69
2022-07-29T11:39:36.279Z,100300.47
2022-07-29T11:44:55.753Z,100286.81
2022-07-29T11:49:59.952Z,100310.59
2022-07-29T12:00:40.450Z,100307.41
2022-07-29T12:05:47.921Z,100293.69
2022-07-29T12:07:02.301Z,100294.94
2022-07-29T12:11:21.192Z,100290.84
2022-07-29T12:16:26.114Z,100254.81
2022-07-29T12:21:54.046Z,100246.50
2022-07-29T12:27:00.560Z,100261.03
2022-07-29T12:32:04.637Z,100268.81
2022-07-29T12:37:11.660Z,100268.91
2022-07-29T12:42:18.372Z,100273.78
2022-07-29T12:47:22.037Z,100240.66
2022-07-29T12:52:32.479Z,100263.72
2022-07-29T12:57:50.094Z,100266.56
2022-07-29T13:03:00.287Z,100247.84
2022-07-29T13:08:20.226Z,100238.81
2022-07-29T13:13:24.257Z,100229.25
2022-07-29T13:18:31.769Z,100211.78
2022-07-29T13:23:38.448Z,100203.50
2022-07-29T13:28:44.276Z,100231.69
2022-07-29T13:33:46.786Z,100234.91
2022-07-29T13:38:49.297Z,100208.84
2022-07-29T13:43:51.624Z,100169.47
2022-07-29T13:48:54.048Z,100210.56
2022-07-29T13:53:56.452Z,100176.94
2022-07-29T13:58:59.047Z,100206.03
2022-07-29T14:04:01.582Z,100209.59
2022-07-29T14:09:07.582Z,100166.66
2022-07-29T14:14:11.667Z,100201.88
2022-07-29T14:19:14.035Z,100219.31
2022-07-29T14:24:21.464Z,100161.09
2022-07-29T14:29:24.805Z,100206.81
2022-07-29T14:34:41.045Z,100198.69
2022-07-29T14:39:43.661Z,100202.66
2022-07-29T14:44:46.096Z,100206.91
2022-07-29T14:49:49.495Z,100203.84
2022-07-29T14:54:51.901Z,100163.66
2022-07-29T14:59:54.477Z,100185.66
2022-07-29T15:04:57.152Z,100177.38
2022-07-29T15:09:59.847Z,100182.34
2022-07-29T15:15:02.246Z,100171.16
2022-07-29T15:20:06.686Z,100180.94
2022-07-29T15:25:09.612Z,100193.44
2022-07-29T15:30:33.023Z,100169.34
2022-07-29T15:35:40.125Z,100117.16
2022-07-29T15:40:44.767Z,100181.97
2022-07-29T15:46:07.265Z,100163.47
2022-07-29T15:51:09.753Z,100162.53
2022-07-29T15:56:12.419Z,100175.75
2022-07-29T16:01:15.165Z,100136.53
2022-07-29T16:06:18.388Z,100158.28
2022-07-29T16:11:21.029Z,100168.06
2022-07-29T16:16:23.729Z,100164.91
2022-07-29T16:21:26.344Z,100179.00
2022-07-29T16:26:29.215Z,100195.03
2022-07-29T16:31:32.240Z,100183.56
2022-07-29T16:36:34.673Z,100208.22
2022-07-29T16:41:37.462Z,100201.47
2022-07-29T16:46:41.465Z,100204.81
2022-07-29T16:51:44.420Z,100214.00
2022-07-29T16:56:46.773Z,100220.59
2022-07-29T17:01:49.623Z,100194.56
2022-07-29T17:06:52.162Z,100238.75
2022-07-29T17:11:55.309Z,100208.50
2022-07-29T17:17:03.371Z,100222.09
2022-07-29T17:22:14.040Z,100228.41
2022-07-29T17:27:21.060Z,100188.84
2022-07-29T17:32:23.756Z,100219.72
2022-07-29T17:37:26.107Z,100203.84
2022-07-29T17:42:28.801Z,100216.34
2022-07-29T17:47:31.143Z,100202.03
2022-07-29T17:52:33.583Z,100177.00
2022-07-29T17:57:36.346Z,100218.59
2022-07-29T18:02:38.850Z,100228.03
2022-07-29T18:07:41.557Z,100221.84
2022-07-29T18:12:43.963Z,100202.78
2022-07-29T18:17:57.824Z,100185.16
2022-07-29T18:23:00.883Z,100242.91
2022-07-29T18:28:04.936Z,100273.41
2022-07-29T18:33:22.172Z,100267.28
2022-07-29T18:38:24.924Z,100259.84
2022-07-29T18:43:27.344Z,100277.63
2022-07-29T18:48:29.708Z,100235.38
2022-07-29T18:53:32.106Z,100267.78
2022-07-29T18:58:39.859Z,100288.13
2022-07-29T19:03:42.343Z,100284.72
2022-07-29T19:08:44.808Z,100284.72
2022-07-29T19:13:47.558Z,100286.84
2022-07-29T19:18:50.013Z,100232.63
2022-07-29T19:24:00.721Z,100335.50
2022-07-29T19:29:10.080Z,100331.56
2022-07-29T19:34:12.772Z,100301.09
2022-07-29T19:39:16.035Z,100340.00
2022-07-29T19:44:18.694Z,100217.47
2022-07-29T19:49:21.342Z,100214.81
2022-07-29T19:54:24.620Z,100236.72
2022-07-29T19:59:29.540Z,100257.41
2022-07-29T20:04:32.253Z,100255.06
2022-07-29T20:09:35.857Z,100196.81
2022-07-29T20:14:42.245Z,100362.38
2022-07-29T20:19:45.081Z,100204.38
2022-07-29T20:24:56.393Z,100366.28
2022-07-29T20:29:58.932Z,100341.78
2022-07-29T20:35:01.482Z,100345.53
2022-07-29T20:40:05.227Z,100289.47
2022-07-29T20:45:18.155Z,100266.63
2022-07-29T20:50:24.189Z,100203.84
2022-07-29T20:55:27.314Z,100358.22
2022-07-29T21:00:30.011Z,100319.75
2022-07-29T21:05:33.419Z,100285.91
2022-07-29T21:10:35.984Z,100344.66
2022-07-29T21:15:38.774Z,100300.75
2022-07-29T21:20:41.332Z,100357.13
2022-07-29T21:25:44.134Z,100339.84
2022-07-29T21:30:46.498Z,100363.63
2022-07-29T21:41:13.350Z,100274.38
2022-07-29T21:46:17.414Z,100314.28
2022-07-29T21:51:19.915Z,100369.56
2022-07-29T21:56:23.613Z,100314.69
2022-07-29T22:01:39.603Z,100314.22
2022-07-29T22:06:42.171Z,100376.19
2022-07-29T22:11:44.722Z,100358.13
2022-07-29T22:16:48.269Z,100284.84
2022-07-29T22:21:50.940Z,100369.66
2022-07-29T22:26:54.434Z,100296.25
2022-07-29T22:31:56.863Z,100226.34
2022-07-29T22:36:59.948Z,100214.16
2022-07-29T22:42:05.641Z,100359.94
2022-07-29T22:47:08.109Z,100269.69
2022-07-29T22:52:10.902Z,100249.97
2022-07-29T22:57:13.294Z,100260.06
2022-07-29T23:02:15.846Z,100335.56
2022-07-29T23:07:20.272Z,100336.66
2022-07-29T23:12:22.741Z,100315.59
2022-07-29T23:17:25.353Z,100319.50
2022-07-29T23:22:27.797Z,100243.25
2022-07-29T23:27:30.522Z,100290.19
2022-07-29T23:32:32.986Z,100237.06
2022-07-29T23:37:35.825Z,100201.41
2022-07-29T23:42:38.420Z,100293.19
2022-07-29T23:47:41.810Z,100298.94
2022-07-29T23:52:46.821Z,100283.75
2022-07-29T23:57:49.697Z,100300.75
